sensor_id;sensor_type;location;lat;lon;timestamp;pressure;altitude;pressure_sealevel;temperature;humidity
73862;BME280;63459;51.456;-0.916;2023-08-17T00:00:38;101521.22;;;31.31;18.47
73862;BME280;63459;51.456;-0.916;2023-08-17T00:03:03;101521.87;;;31.67;18.45
73862;BME280;63459;51.456;-0.916;2023-08-17T00:05:28;101514.59;;;30.99;18.34
73862;BME280;63459;51.456;-0.916;2023-08-17T00:07:53;101523.35;;;31.52;18.28
73862;BME280;63459;51.456;-0.916;2023-08-17T00:10:18;101518.10;;;31.39;18.34
73862;BME280;63459;51.456;-0.916;2023-08-17T00:12:44;101518.29;;;30.96;18.33
73862;BME280;63459;51.456;-0.916;2023-08-17T00:15:10;101517.82;;;30.67;18.34
73862;BME280;63459;51.456;-0.916;2023-08-17T00:17:34;101518.39;;;31.29;18.38
73862;BME280;63459;51.456;-0.916;2023-08-17T00:20:00;101519.10;;;30.97;18.49
73862;BME280;63459;51.456;-0.916;2023-08-17T00:22:25;101520.31;;;31.34;18.56
73862;BME280;63459;51.456;-0.916;2023-08-17T00:24:50;101519.36;;;31.06;18.63
73862;BME280;63459;51.456;-0.916;2023-08-17T00:27:15;101520.39;;;30.82;18.68
73862;BME280;63459;51.456;-0.916;2023-08-17T00:29:41;101521.23;;;31.03;18.73
73862;BME280;63459;51.456;-0.916;2023-08-17T00:32:06;101515.46;;;31.01;18.83
73862;BME280;63459;51.456;-0.916;2023-08-17T00:34:32;101515.46;;;30.96;18.92
73862;BME280;63459;51.456;-0.916;2023-08-17T00:36:57;101514.17;;;30.65;19.00
73862;BME280;63459;51.456;-0.916;2023-08-17T00:39:22;101509.88;;;30.54;19.10
73862;BME280;63459;51.456;-0.916;2023-08-17T00:44:13;101506.62;;;31.04;19.30
73862;BME280;63459;51.456;-0.916;2023-08-17T00:46:38;101508.23;;;30.72;19.39
73862;BME280;63459;51.456;-0.916;2023-08-17T00:49:04;101507.90;;;30.37;19.62
73862;BME280;63459;51.456;-0.916;2023-08-17T00:51:30;101507.29;;;30.27;19.72
73862;BME280;63459;51.456;-0.916;2023-08-17T00:53:58;101510.76;;;30.47;19.88
73862;BME280;63459;51.456;-0.916;2023-08-17T00:58:46;101517.96;;;30.38;20.16
73862;BME280;63459;51.456;-0.916;2023-08-17T01:01:11;101518.80;;;30.07;20.39
73862;BME280;63459;51.456;-0.916;2023-08-17T01:03:37;101515.00;;;30.01;20.49
73862;BME280;63459;51.456;-0.916;2023-08-17T01:06:03;101520.56;;;29.80;20.51
73862;BME280;63459;51.456;-0.916;2023-08-17T01:08:27;101527.76;;;30.00;20.60
73862;BME280;63459;51.456;-0.916;2023-08-17T01:10:57;101522.20;;;30.04;20.67
73862;BME280;63459;51.456;-0.916;2023-08-17T01:13:21;101517.74;;;30.34;20.63
73862;BME280;63459;51.456;-0.916;2023-08-17T01:15:47;101521.44;;;29.81;20.61
73862;BME280;63459;51.456;-0.916;2023-08-17T01:18:16;101516.28;;;30.30;20.62
73862;BME280;63459;51.456;-0.916;2023-08-17T01:20:34;101512.25;;;30.11;20.80
73862;BME280;63459;51.456;-0.916;2023-08-17T01:23:03;101511.38;;;30.52;20.87
73862;BME280;63459;51.456;-0.916;2023-08-17T01:25:24;101514.28;;;30.51;20.94
73862;BME280;63459;51.456;-0.916;2023-08-17T01:27:49;101510.97;;;30.28;20.95
73862;BME280;63459;51.456;-0.916;2023-08-17T01:30:16;101512.56;;;30.07;21.02
73862;BME280;63459;51.456;-0.916;2023-08-17T01:32:48;101509.12;;;30.29;21.03
73862;BME280;63459;51.456;-0.916;2023-08-17T01:35:14;101507.05;;;30.52;21.13
73862;BME280;63459;51.456;-0.916;2023-08-17T01:37:31;101504.55;;;30.32;21.17
73862;BME280;63459;51.456;-0.916;2023-08-17T01:39:56;101502.83;;;30.08;21.34
73862;BME280;63459;51.456;-0.916;2023-08-17T01:42:22;101502.62;;;30.49;21.45
73862;BME280;63459;51.456;-0.916;2023-08-17T01:44:46;101498.48;;;30.19;21.78
73862;BME280;63459;51.456;-0.916;2023-08-17T01:47:11;101501.18;;;30.14;21.88
73862;BME280;63459;51.456;-0.916;2023-08-17T01:49:36;101494.97;;;30.43;22.05
73862;BME280;63459;51.456;-0.916;2023-08-17T01:52:02;101496.90;;;29.88;22.21
73862;BME280;63459;51.456;-0.916;2023-08-17T01:56:54;101492.99;;;30.24;22.22
73862;BME280;63459;51.456;-0.916;2023-08-17T01:59:19;101493.36;;;29.69;22.31
73862;BME280;63459;51.456;-0.916;2023-08-17T02:01:45;101496.22;;;30.10;22.36
73862;BME280;63459;51.456;-0.916;2023-08-17T02:04:11;101493.66;;;29.83;22.40
73862;BME280;63459;51.456;-0.916;2023-08-17T02:06:36;101492.93;;;30.28;22.37
73862;BME280;63459;51.456;-0.916;2023-08-17T02:09:01;101496.89;;;30.10;22.37
73862;BME280;63459;51.456;-0.916;2023-08-17T02:11:26;101494.01;;;29.90;22.39
73862;BME280;63459;51.456;-0.916;2023-08-17T02:13:51;101497.45;;;29.93;22.36
73862;BME280;63459;51.456;-0.916;2023-08-17T02:16:17;101495.10;;;30.01;22.30
73862;BME280;63459;51.456;-0.916;2023-08-17T02:18:43;101494.73;;;29.85;22.25
73862;BME280;63459;51.456;-0.916;2023-08-17T02:23:34;101499.92;;;30.01;22.17
73862;BME280;63459;51.456;-0.916;2023-08-17T02:47:49;101495.93;;;30.07;23.12
73862;BME280;63459;51.456;-0.916;2023-08-17T02:50:13;101491.77;;;30.00;23.22
73862;BME280;63459;51.456;-0.916;2023-08-17T02:52:39;101485.19;;;29.98;23.32
73862;BME280;63459;51.456;-0.916;2023-08-17T02:55:05;101486.92;;;30.15;23.42
73862;BME280;63459;51.456;-0.916;2023-08-17T02:57:30;101485.71;;;30.12;23.42
73862;BME280;63459;51.456;-0.916;2023-08-17T02:59:55;101485.18;;;29.50;23.45
73862;BME280;63459;51.456;-0.916;2023-08-17T03:02:21;101485.14;;;29.89;23.49
73862;BME280;63459;51.456;-0.916;2023-08-17T03:04:46;101485.25;;;30.07;23.54
73862;BME280;63459;51.456;-0.916;2023-08-17T03:07:12;101482.83;;;30.07;23.55
73862;BME280;63459;51.456;-0.916;2023-08-17T03:09:37;101482.80;;;29.41;23.69
73862;BME280;63459;51.456;-0.916;2023-08-17T03:12:03;101485.49;;;30.07;23.79
73862;BME280;63459;51.456;-0.916;2023-08-17T03:14:30;101483.42;;;30.08;23.99
73862;BME280;63459;51.456;-0.916;2023-08-17T03:16:54;101483.21;;;29.86;24.10
73862;BME280;63459;51.456;-0.916;2023-08-17T03:19:20;101484.61;;;29.85;24.22
73862;BME280;63459;51.456;-0.916;2023-08-17T03:21:46;101479.47;;;29.64;24.43
73862;BME280;63459;51.456;-0.916;2023-08-17T03:24:11;101481.69;;;29.86;24.42
73862;BME280;63459;51.456;-0.916;2023-08-17T03:26:36;101485.53;;;29.90;24.48
73862;BME280;63459;51.456;-0.916;2023-08-17T03:29:01;101486.99;;;29.68;24.58
73862;BME280;63459;51.456;-0.916;2023-08-17T03:31:27;101488.27;;;29.93;24.65
73862;BME280;63459;51.456;-0.916;2023-08-17T03:33:53;101488.04;;;29.95;24.63
73862;BME280;63459;51.456;-0.916;2023-08-17T03:36:18;101486.55;;;29.81;24.63
73862;BME280;63459;51.456;-0.916;2023-08-17T03:38:45;101484.83;;;29.84;24.68
73862;BME280;63459;51.456;-0.916;2023-08-17T03:41:10;101483.97;;;30.33;24.65
73862;BME280;63459;51.456;-0.916;2023-08-17T03:43:35;101483.36;;;30.04;24.53
73862;BME280;63459;51.456;-0.916;2023-08-17T03:46:03;101480.53;;;30.10;24.52
73862;BME280;63459;51.456;-0.916;2023-08-17T03:48:26;101476.91;;;30.21;24.45
73862;BME280;63459;51.456;-0.916;2023-08-17T03:50:51;101483.94;;;30.00;24.46
73862;BME280;63459;51.456;-0.916;2023-08-17T03:53:17;101483.30;;;30.26;24.39
73862;BME280;63459;51.456;-0.916;2023-08-17T03:55:45;101480.97;;;29.81;24.42
73862;BME280;63459;51.456;-0.916;2023-08-17T03:58:07;101480.02;;;30.48;24.43
73862;BME280;63459;51.456;-0.916;2023-08-17T04:00:33;101477.39;;;30.01;24.47
73862;BME280;63459;51.456;-0.916;2023-08-17T04:02:59;101477.17;;;30.19;24.46
73862;BME280;63459;51.456;-0.916;2023-08-17T04:05:25;101482.65;;;30.16;24.48
73862;BME280;63459;51.456;-0.916;2023-08-17T04:07:56;101481.99;;;30.35;24.46
73862;BME280;63459;51.456;-0.916;2023-08-17T04:10:15;101481.75;;;30.09;24.48
73862;BME280;63459;51.456;-0.916;2023-08-17T04:12:41;101482.74;;;30.20;24.54
73862;BME280;63459;51.456;-0.916;2023-08-17T04:15:07;101481.33;;;30.39;24.52
73862;BME280;63459;51.456;-0.916;2023-08-17T04:17:32;101482.24;;;30.15;24.50
73862;BME280;63459;51.456;-0.916;2023-08-17T04:19:57;101481.81;;;29.67;24.53
73862;BME280;63459;51.456;-0.916;2023-08-17T04:22:23;101486.91;;;29.67;24.54
73862;BME280;63459;51.456;-0.916;2023-08-17T04:24:48;101483.27;;;30.09;24.58
73862;BME280;63459;51.456;-0.916;2023-08-17T04:27:13;101483.76;;;30.30;24.57
73862;BME280;63459;51.456;-0.916;2023-08-17T04:29:40;101487.14;;;29.66;24.55
73862;BME280;63459;51.456;-0.916;2023-08-17T04:32:05;101480.19;;;29.83;24.59
73862;BME280;63459;51.456;-0.916;2023-08-17T04:34:31;101475.66;;;29.56;24.63
73862;BME280;63459;51.456;-0.916;2023-08-17T04:36:56;101472.97;;;29.93;24.66
73862;BME280;63459;51.456;-0.916;2023-08-17T04:39:22;101470.46;;;29.25;24.69
73862;BME280;63459;51.456;-0.916;2023-08-17T04:41:47;101469.49;;;29.65;24.69
73862;BME280;63459;51.456;-0.916;2023-08-17T04:44:13;101467.25;;;29.84;24.68
73862;BME280;63459;51.456;-0.916;2023-08-17T04:46:39;101467.25;;;29.34;24.71
73862;BME280;63459;51.456;-0.916;2023-08-17T04:49:04;101471.29;;;29.56;24.70
73862;BME280;63459;51.456;-0.916;2023-08-17T04:51:30;101466.45;;;29.75;24.70
73862;BME280;63459;51.456;-0.916;2023-08-17T04:53:54;101468.23;;;29.79;24.64
73862;BME280;63459;51.456;-0.916;2023-08-17T04:56:20;101470.49;;;29.81;24.61
73862;BME280;63459;51.456;-0.916;2023-08-17T04:58:46;101466.84;;;30.00;24.61
73862;BME280;63459;51.456;-0.916;2023-08-17T05:01:11;101463.55;;;29.93;24.67
73862;BME280;63459;51.456;-0.916;2023-08-17T05:06:02;101465.69;;;29.67;24.70
73862;BME280;63459;51.456;-0.916;2023-08-17T05:08:28;101462.91;;;29.20;24.72
73862;BME280;63459;51.456;-0.916;2023-08-17T05:10:54;101465.26;;;29.58;24.77
73862;BME280;63459;51.456;-0.916;2023-08-17T05:13:19;101464.27;;;29.76;24.82
73862;BME280;63459;51.456;-0.916;2023-08-17T05:15:45;101464.36;;;29.16;24.76
73862;BME280;63459;51.456;-0.916;2023-08-17T05:18:10;101462.83;;;29.60;24.78
73862;BME280;63459;51.456;-0.916;2023-08-17T05:23:01;101463.80;;;29.65;24.75
73862;BME280;63459;51.456;-0.916;2023-08-17T05:25:28;101458.81;;;29.08;24.69
73862;BME280;63459;51.456;-0.916;2023-08-17T05:27:52;101463.53;;;30.61;23.40
73862;BME280;63459;51.456;-0.916;2023-08-17T05:30:17;101464.28;;;30.16;23.81
73862;BME280;63459;51.456;-0.916;2023-08-17T05:32:43;101467.73;;;30.05;24.15
73862;BME280;63459;51.456;-0.916;2023-08-17T05:35:09;101469.96;;;30.15;24.30
73862;BME280;63459;51.456;-0.916;2023-08-17T05:37:34;101467.05;;;30.13;24.30
73862;BME280;63459;51.456;-0.916;2023-08-17T05:40:00;101466.26;;;29.89;24.34
73862;BME280;63459;51.456;-0.916;2023-08-17T05:42:26;101467.28;;;30.30;24.38
73862;BME280;63459;51.456;-0.916;2023-08-17T05:44:51;101464.39;;;29.60;24.44
73862;BME280;63459;51.456;-0.916;2023-08-17T05:47:17;101458.49;;;30.27;24.44
73862;BME280;63459;51.456;-0.916;2023-08-17T05:49:43;101457.52;;;29.85;24.47
73862;BME280;63459;51.456;-0.916;2023-08-17T05:52:07;101463.27;;;30.16;24.41
73862;BME280;63459;51.456;-0.916;2023-08-17T05:54:33;101465.03;;;29.97;24.41
73862;BME280;63459;51.456;-0.916;2023-08-17T05:56:58;101465.57;;;29.64;24.33
73862;BME280;63459;51.456;-0.916;2023-08-17T05:59:23;101460.15;;;29.94;24.26
73862;BME280;63459;51.456;-0.916;2023-08-17T06:01:48;101462.23;;;30.25;24.23
73862;BME280;63459;51.456;-0.916;2023-08-17T06:04:14;101457.00;;;30.38;24.16
73862;BME280;63459;51.456;-0.916;2023-08-17T06:06:39;101461.32;;;30.22;23.96
73862;BME280;63459;51.456;-0.916;2023-08-17T06:09:05;101463.64;;;31.08;23.67
73862;BME280;63459;51.456;-0.916;2023-08-17T06:11:30;101460.54;;;31.00;23.26
73862;BME280;63459;51.456;-0.916;2023-08-17T06:13:55;101462.53;;;31.86;22.70
73862;BME280;63459;51.456;-0.916;2023-08-17T06:16:20;101465.62;;;32.27;22.37
73862;BME280;63459;51.456;-0.916;2023-08-17T06:18:45;101466.89;;;32.88;21.81
73862;BME280;63459;51.456;-0.916;2023-08-17T06:21:10;101471.15;;;33.09;21.29
73862;BME280;63459;51.456;-0.916;2023-08-17T06:23:36;101468.75;;;33.47;20.90
73862;BME280;63459;51.456;-0.916;2023-08-17T06:28:27;101479.19;;;34.07;20.07
73862;BME280;63459;51.456;-0.916;2023-08-17T06:30:52;101475.34;;;34.27;19.47
73862;BME280;63459;51.456;-0.916;2023-08-17T06:33:17;101475.05;;;34.90;19.17
73862;BME280;63459;51.456;-0.916;2023-08-17T06:35:42;101473.65;;;35.23;18.96
73862;BME280;63459;51.456;-0.916;2023-08-17T06:38:08;101472.30;;;35.44;18.76
73862;BME280;63459;51.456;-0.916;2023-08-17T06:40:33;101481.81;;;35.77;18.34
73862;BME280;63459;51.456;-0.916;2023-08-17T06:45:23;101486.12;;;35.92;17.97
73862;BME280;63459;51.456;-0.916;2023-08-17T06:47:48;101489.13;;;36.26;17.61
73862;BME280;63459;51.456;-0.916;2023-08-17T06:50:13;101483.50;;;36.33;17.62
73862;BME280;63459;51.456;-0.916;2023-08-17T06:52:39;101482.87;;;36.47;17.58
73862;BME280;63459;51.456;-0.916;2023-08-17T06:55:04;101486.52;;;36.16;17.54
73862;BME280;63459;51.456;-0.916;2023-08-17T06:57:29;101489.52;;;36.42;17.46
73862;BME280;63459;51.456;-0.916;2023-08-17T06:59:54;101488.13;;;36.70;17.49
73862;BME280;63459;51.456;-0.916;2023-08-17T07:02:20;101485.16;;;36.64;17.41
73862;BME280;63459;51.456;-0.916;2023-08-17T07:04:45;101481.25;;;36.61;17.56
73862;BME280;63459;51.456;-0.916;2023-08-17T07:07:10;101483.95;;;35.80;17.77
73862;BME280;63459;51.456;-0.916;2023-08-17T07:09:35;101484.73;;;36.23;17.94
73862;BME280;63459;51.456;-0.916;2023-08-17T07:12:00;101488.60;;;36.52;18.07
73862;BME280;63459;51.456;-0.916;2023-08-17T07:14:25;101488.11;;;36.16;18.19
73862;BME280;63459;51.456;-0.916;2023-08-17T07:16:50;101484.91;;;35.46;18.35
73862;BME280;63459;51.456;-0.916;2023-08-17T07:19:15;101485.07;;;35.55;18.50
73862;BME280;63459;51.456;-0.916;2023-08-17T07:21:40;101483.16;;;35.15;18.64
73862;BME280;63459;51.456;-0.916;2023-08-17T07:24:12;101480.32;;;35.47;18.74
73862;BME280;63459;51.456;-0.916;2023-08-17T07:26:31;101477.84;;;35.26;18.91
73862;BME280;63459;51.456;-0.916;2023-08-17T07:28:56;101479.51;;;35.15;19.00
73862;BME280;63459;51.456;-0.916;2023-08-17T07:31:22;101476.37;;;35.04;19.11
73862;BME280;63459;51.456;-0.916;2023-08-17T07:33:47;101474.73;;;35.08;19.29
73862;BME280;63459;51.456;-0.916;2023-08-17T07:36:12;101475.23;;;34.72;19.44
73862;BME280;63459;51.456;-0.916;2023-08-17T07:38:38;101471.47;;;34.90;19.52
73862;BME280;63459;51.456;-0.916;2023-08-17T07:41:03;101471.11;;;34.52;19.66
73862;BME280;63459;51.456;-0.916;2023-08-17T07:43:29;101475.29;;;34.34;19.81
73862;BME280;63459;51.456;-0.916;2023-08-17T07:45:54;101471.49;;;34.90;19.90
73862;BME280;63459;51.456;-0.916;2023-08-17T07:48:18;101471.32;;;34.03;20.09
73862;BME280;63459;51.456;-0.916;2023-08-17T07:50:48;101474.01;;;34.56;20.21
73862;BME280;63459;51.456;-0.916;2023-08-17T07:53:09;101475.97;;;34.24;20.31
73862;BME280;63459;51.456;-0.916;2023-08-17T07:55:35;101470.50;;;34.40;20.22
73862;BME280;63459;51.456;-0.916;2023-08-17T07:58:00;101470.11;;;34.20;20.22
73862;BME280;63459;51.456;-0.916;2023-08-17T08:00:26;101470.91;;;34.26;20.21
73862;BME280;63459;51.456;-0.916;2023-08-17T08:02:51;101468.21;;;34.92;20.09
73862;BME280;63459;51.456;-0.916;2023-08-17T08:07:41;101466.18;;;34.25;19.95
73862;BME280;63459;51.456;-0.916;2023-08-17T08:10:07;101457.89;;;34.72;19.82
73862;BME280;63459;51.456;-0.916;2023-08-17T08:12:32;101459.08;;;34.99;19.69
73862;BME280;63459;51.456;-0.916;2023-08-17T08:14:57;101451.70;;;35.23;19.51
73862;BME280;63459;51.456;-0.916;2023-08-17T08:19:49;101452.39;;;35.58;19.11
73862;BME280;63459;51.456;-0.916;2023-08-17T08:22:15;101453.41;;;35.51;19.24
73862;BME280;63459;51.456;-0.916;2023-08-17T08:24:40;101450.01;;;34.86;19.28
73862;BME280;63459;51.456;-0.916;2023-08-17T08:27:06;101449.18;;;35.79;19.27
73862;BME280;63459;51.456;-0.916;2023-08-17T08:29:31;101452.30;;;35.57;19.16
73862;BME280;63459;51.456;-0.916;2023-08-17T08:31:56;101455.01;;;35.22;19.13
73862;BME280;63459;51.456;-0.916;2023-08-17T08:34:22;101449.01;;;35.09;19.23
73862;BME280;63459;51.456;-0.916;2023-08-17T08:36:48;101445.81;;;35.07;19.28
73862;BME280;63459;51.456;-0.916;2023-08-17T08:39:13;101453.63;;;35.48;19.27
73862;BME280;63459;51.456;-0.916;2023-08-17T08:41:37;101445.84;;;35.60;19.23
73862;BME280;63459;51.456;-0.916;2023-08-17T08:44:04;101449.42;;;35.72;19.08
73862;BME280;63459;51.456;-0.916;2023-08-17T08:46:30;101459.31;;;35.24;19.03
73862;BME280;63459;51.456;-0.916;2023-08-17T08:48:54;101448.74;;;35.30;19.09
73862;BME280;63459;51.456;-0.916;2023-08-17T08:51:25;101444.96;;;35.16;19.04
73862;BME280;63459;51.456;-0.916;2023-08-17T08:53:45;101438.04;;;35.06;19.06
73862;BME280;63459;51.456;-0.916;2023-08-17T08:56:12;101431.62;;;35.11;19.17
73862;BME280;63459;51.456;-0.916;2023-08-17T08:58:36;101438.61;;;35.23;19.29
73862;BME280;63459;51.456;-0.916;2023-08-17T09:01:02;101445.05;;;35.02;19.31
73862;BME280;63459;51.456;-0.916;2023-08-17T09:03:27;101442.69;;;34.90;19.25
73862;BME280;63459;51.456;-0.916;2023-08-17T09:05:52;101444.84;;;35.13;19.06
73862;BME280;63459;51.456;-0.916;2023-08-17T09:08:22;101449.15;;;35.56;18.97
73862;BME280;63459;51.456;-0.916;2023-08-17T09:10:42;101445.14;;;35.27;18.84
73862;BME280;63459;51.456;-0.916;2023-08-17T09:13:09;101439.60;;;35.32;18.65
73862;BME280;63459;51.456;-0.916;2023-08-17T09:17:59;101440.20;;;35.34;18.22
73862;BME280;63459;51.456;-0.916;2023-08-17T09:20:35;101445.28;;;35.71;18.32
73862;BME280;63459;51.456;-0.916;2023-08-17T09:22:49;101445.69;;;35.60;18.37
73862;BME280;63459;51.456;-0.916;2023-08-17T09:25:22;101453.37;;;35.78;18.31
73862;BME280;63459;51.456;-0.916;2023-08-17T09:27:40;101449.76;;;36.18;18.22
73862;BME280;63459;51.456;-0.916;2023-08-17T09:30:08;101448.58;;;36.23;18.09
73862;BME280;63459;51.456;-0.916;2023-08-17T09:32:31;101450.45;;;36.32;18.05
73862;BME280;63459;51.456;-0.916;2023-08-17T09:34:56;101451.11;;;36.21;17.98
73862;BME280;63459;51.456;-0.916;2023-08-17T09:37:22;101454.65;;;35.97;17.96
73862;BME280;63459;51.456;-0.916;2023-08-17T09:39:48;101454.55;;;35.82;17.94
73862;BME280;63459;51.456;-0.916;2023-08-17T09:42:12;101456.60;;;36.12;17.86
73862;BME280;63459;51.456;-0.916;2023-08-17T09:44:38;101455.95;;;35.94;17.86
73862;BME280;63459;51.456;-0.916;2023-08-17T09:47:05;101455.66;;;36.29;17.70
73862;BME280;63459;51.456;-0.916;2023-08-17T09:49:31;101455.01;;;36.36;17.61
73862;BME280;63459;51.456;-0.916;2023-08-17T09:51:54;101458.34;;;35.75;17.48
73862;BME280;63459;51.456;-0.916;2023-08-17T09:54:21;101455.88;;;36.04;17.47
73862;BME280;63459;51.456;-0.916;2023-08-17T09:56:44;101447.71;;;36.37;17.48
73862;BME280;63459;51.456;-0.916;2023-08-17T09:59:09;101447.84;;;36.59;17.43
73862;BME280;63459;51.456;-0.916;2023-08-17T10:01:35;101450.41;;;36.36;17.34
73862;BME280;63459;51.456;-0.916;2023-08-17T10:04:01;101442.18;;;36.38;17.24
73862;BME280;63459;51.456;-0.916;2023-08-17T10:06:26;101441.92;;;36.15;17.28
73862;BME280;63459;51.456;-0.916;2023-08-17T10:08:53;101439.72;;;36.14;17.24
73862;BME280;63459;51.456;-0.916;2023-08-17T10:11:19;101431.99;;;36.52;17.15
73862;BME280;63459;51.456;-0.916;2023-08-17T10:13:43;101431.02;;;35.95;17.09
73862;BME280;63459;51.456;-0.916;2023-08-17T10:16:11;101426.26;;;36.19;17.06
73862;BME280;63459;51.456;-0.916;2023-08-17T10:18:35;101454.27;;;36.36;16.95
73862;BME280;63459;51.456;-0.916;2023-08-17T10:21:01;101428.79;;;36.38;16.72
73862;BME280;63459;51.456;-0.916;2023-08-17T10:25:47;101424.46;;;36.30;16.74
73862;BME280;63459;51.456;-0.916;2023-08-17T10:28:12;101421.66;;;36.43;16.95
73862;BME280;63459;51.456;-0.916;2023-08-17T10:30:38;101425.66;;;36.30;17.07
73862;BME280;63459;51.456;-0.916;2023-08-17T10:33:04;101433.12;;;36.00;17.10
73862;BME280;63459;51.456;-0.916;2023-08-17T10:35:28;101429.60;;;36.10;17.01
73862;BME280;63459;51.456;-0.916;2023-08-17T10:37:53;101428.77;;;36.33;17.07
73862;BME280;63459;51.456;-0.916;2023-08-17T10:40:26;101434.16;;;35.66;16.88
73862;BME280;63459;51.456;-0.916;2023-08-17T10:42:49;101417.70;;;35.86;16.87
73862;BME280;63459;51.456;-0.916;2023-08-17T10:47:34;101417.52;;;35.99;16.87
73862;BME280;63459;51.456;-0.916;2023-08-17T10:50:03;101418.15;;;35.84;16.93
73862;BME280;63459;51.456;-0.916;2023-08-17T10:52:27;101414.03;;;36.58;16.84
73862;BME280;63459;51.456;-0.916;2023-08-17T10:54:50;101414.14;;;36.64;16.54
73862;BME280;63459;51.456;-0.916;2023-08-17T10:59:43;101408.53;;;36.32;16.28
73862;BME280;63459;51.456;-0.916;2023-08-17T11:02:07;101405.72;;;35.87;16.36
73862;BME280;63459;51.456;-0.916;2023-08-17T11:04:32;101392.01;;;36.28;16.16
73862;BME280;63459;51.456;-0.916;2023-08-17T11:07:01;101386.17;;;36.04;16.03
73862;BME280;63459;51.456;-0.916;2023-08-17T11:09:22;101384.11;;;36.00;16.08
73862;BME280;63459;51.456;-0.916;2023-08-17T11:11:52;101405.84;;;36.14;16.11
73862;BME280;63459;51.456;-0.916;2023-08-17T11:16:38;101398.47;;;36.03;16.09
73862;BME280;63459;51.456;-0.916;2023-08-17T11:19:03;101398.26;;;36.44;15.76
73862;BME280;63459;51.456;-0.916;2023-08-17T11:21:28;101394.81;;;36.69;15.60
73862;BME280;63459;51.456;-0.916;2023-08-17T11:23:56;101399.19;;;36.25;15.67
73862;BME280;63459;51.456;-0.916;2023-08-17T11:26:19;101389.63;;;36.30;15.42
73862;BME280;63459;51.456;-0.916;2023-08-17T11:28:44;101392.33;;;36.10;15.38
73862;BME280;63459;51.456;-0.916;2023-08-17T11:31:14;101403.14;;;36.36;15.19
73862;BME280;63459;51.456;-0.916;2023-08-17T11:33:36;101397.87;;;36.23;15.32
73862;BME280;63459;51.456;-0.916;2023-08-17T11:36:00;101390.41;;;36.29;15.41
73862;BME280;63459;51.456;-0.916;2023-08-17T11:38:25;101390.41;;;36.46;15.12
73862;BME280;63459;51.456;-0.916;2023-08-17T11:40:50;101391.29;;;36.76;15.02
73862;BME280;63459;51.456;-0.916;2023-08-17T11:43:15;101394.88;;;36.37;14.57
73862;BME280;63459;51.456;-0.916;2023-08-17T11:48:05;101397.65;;;36.51;14.63
73862;BME280;63459;51.456;-0.916;2023-08-17T11:50:30;101394.06;;;36.33;14.58
73862;BME280;63459;51.456;-0.916;2023-08-17T11:52:59;101380.31;;;36.51;14.64
73862;BME280;63459;51.456;-0.916;2023-08-17T11:55:26;101385.34;;;36.56;14.46
73862;BME280;63459;51.456;-0.916;2023-08-17T11:57:46;101389.87;;;36.93;14.41
73862;BME280;63459;51.456;-0.916;2023-08-17T12:00:17;101392.22;;;36.90;14.31
73862;BME280;63459;51.456;-0.916;2023-08-17T12:02:36;101386.47;;;37.17;14.21
73862;BME280;63459;51.456;-0.916;2023-08-17T12:07:27;101374.51;;;36.71;14.13
73862;BME280;63459;51.456;-0.916;2023-08-17T12:09:52;101376.69;;;37.28;14.08
73862;BME280;63459;51.456;-0.916;2023-08-17T12:12:18;101371.62;;;37.39;13.88
73862;BME280;63459;51.456;-0.916;2023-08-17T12:14:43;101381.07;;;37.36;13.75
73862;BME280;63459;51.456;-0.916;2023-08-17T12:17:15;101383.49;;;36.80;13.72
73862;BME280;63459;51.456;-0.916;2023-08-17T12:19:33;101375.40;;;37.18;13.69
73862;BME280;63459;51.456;-0.916;2023-08-17T12:21:59;101389.33;;;37.21;13.28
73862;BME280;63459;51.456;-0.916;2023-08-17T12:24:24;101377.32;;;36.88;13.37
73862;BME280;63459;51.456;-0.916;2023-08-17T12:26:49;101366.72;;;37.05;13.47
73862;BME280;63459;51.456;-0.916;2023-08-17T12:29:14;101364.71;;;37.00;13.68
73862;BME280;63459;51.456;-0.916;2023-08-17T12:31:39;101360.20;;;36.99;13.85
73862;BME280;63459;51.456;-0.916;2023-08-17T12:34:04;101365.32;;;36.72;14.00
73862;BME280;63459;51.456;-0.916;2023-08-17T12:36:34;101373.13;;;36.72;14.07
73862;BME280;63459;51.456;-0.916;2023-08-17T12:38:55;101365.95;;;36.42;14.12
73862;BME280;63459;51.456;-0.916;2023-08-17T12:41:20;101359.59;;;36.79;14.05
73862;BME280;63459;51.456;-0.916;2023-08-17T12:43:44;101353.17;;;36.96;14.00
73862;BME280;63459;51.456;-0.916;2023-08-17T12:46:09;101343.72;;;36.35;13.89
73862;BME280;63459;51.456;-0.916;2023-08-17T12:48:35;101346.68;;;36.61;13.96
73862;BME280;63459;51.456;-0.916;2023-08-17T12:51:00;101346.31;;;36.85;13.62
73862;BME280;63459;51.456;-0.916;2023-08-17T12:55:50;101338.28;;;36.68;13.27
73862;BME280;63459;51.456;-0.916;2023-08-17T12:58:15;101343.63;;;36.67;13.40
73862;BME280;63459;51.456;-0.916;2023-08-17T13:00:40;101332.63;;;36.86;13.37
73862;BME280;63459;51.456;-0.916;2023-08-17T13:03:06;101327.21;;;36.83;13.39
73862;BME280;63459;51.456;-0.916;2023-08-17T13:05:32;101332.83;;;36.62;13.38
73862;BME280;63459;51.456;-0.916;2023-08-17T13:07:56;101330.91;;;36.67;13.27
73862;BME280;63459;51.456;-0.916;2023-08-17T13:10:23;101328.63;;;36.66;13.10
73862;BME280;63459;51.456;-0.916;2023-08-17T13:12:47;101336.23;;;36.72;13.02
73862;BME280;63459;51.456;-0.916;2023-08-17T13:15:12;101337.41;;;36.51;12.89
73862;BME280;63459;51.456;-0.916;2023-08-17T13:17:38;101333.98;;;37.00;12.96
73862;BME280;63459;51.456;-0.916;2023-08-17T13:20:05;101326.63;;;36.62;13.05
73862;BME280;63459;51.456;-0.916;2023-08-17T13:22:29;101326.81;;;36.99;13.00
73862;BME280;63459;51.456;-0.916;2023-08-17T13:24:54;101328.84;;;37.11;13.07
73862;BME280;63459;51.456;-0.916;2023-08-17T13:27:19;101326.36;;;37.00;13.16
73862;BME280;63459;51.456;-0.916;2023-08-17T13:29:44;101319.98;;;36.85;13.25
73862;BME280;63459;51.456;-0.916;2023-08-17T13:34:34;101313.89;;;37.40;12.80
73862;BME280;63459;51.456;-0.916;2023-08-17T13:37:00;101314.10;;;37.20;12.65